KGYR/GYR METAR and TAF weather

Enter ICAO airport designator
Station Type Date Time Source
KGYR METAR 2020/04/05 12:47 UTC NOAA

KGYR 051247Z 06004KT 10SM SCT250 15/01 A2983 RMK FIRST


Station Type Date Time Source
KGYR Decoded METAR 2020/04/05 12:47 UTC NOAA

Goodyear Municipal, AZ, United States (KGYR) 33-25N 112-23W
Apr 05, 2020 - 08:47 AM EDT / 2020.04.05 1247 UTC
Wind: from the ENE (060 degrees) at 5 MPH (4 KT):0
Visibility: 10 mile(s):0
Sky conditions: partly cloudy
Temperature: 59 F (15 C)
Dew Point: 33 F (1 C)
Relative Humidity: 38%
Pressure (altimeter): 29.83 in. Hg (1010 hPa)
ob: KGYR 051247Z 06004KT 10SM SCT250 15/01 A2983 RMK FIRST
cycle: 13

Station Type Date Time Source
KGYR TAF UTC NOAA

Error!

Example: see airport list